Hallsville, Missouri
Current Conditions -  °F | °C
As of 6:01 PM on Sunday 25 Jan 2015 (Local Time) from KCOU Reporting Station
Overcast Overcast  
Wind Chill: 22°   Ceiling: 1000
Heat Index: 33°   Visibility: 7mi
Dew Point: 30°   Wind: 18mph
Humidity: 89%   Direction: 350°N
Pressure: 29.95"   Gusts: NA
Location:  39.12°N, 92.22°W
Report Text: KCOU 260001Z 35016KT 7SM OVC010 01/M01 A2995 RMK AO2 CIG 008V013 T00061011
Loading
Personal Weather Stations






























Interactive Weather Map New forecast layout! Learn more

10-Day Weather Forecast

Advertisements
Track Severe Weather on mobile